createdAt,value
2023-05-21T00:01:35.112Z,16.85
2023-05-21T00:04:03.234Z,17.05
2023-05-21T00:06:30.945Z,17.00
2023-05-21T00:08:58.891Z,16.90
2023-05-21T00:11:26.818Z,16.97
2023-05-21T00:13:54.405Z,16.98
2023-05-21T00:16:22.592Z,16.35
2023-05-21T00:18:50.596Z,16.49
2023-05-21T00:21:18.384Z,16.35
2023-05-21T00:23:46.059Z,16.55
2023-05-21T00:26:14.120Z,16.35
2023-05-21T00:28:42.842Z,16.31
2023-05-21T00:31:10.444Z,16.12
2023-05-21T00:33:38.432Z,16.29
2023-05-21T00:36:06.323Z,16.33
2023-05-21T00:38:33.988Z,16.30
2023-05-21T00:41:02.453Z,16.14
2023-05-21T00:43:30.149Z,16.17
2023-05-21T00:45:57.871Z,16.11
2023-05-21T00:48:26.019Z,15.90
2023-05-21T00:50:53.719Z,15.83
2023-05-21T00:53:21.428Z,15.90
2023-05-21T00:55:50.632Z,15.96
2023-05-21T00:58:18.297Z,15.97
2023-05-21T01:00:46.790Z,15.77
2023-05-21T01:03:14.879Z,16.48
2023-05-21T01:05:42.693Z,16.57
2023-05-21T01:08:10.460Z,16.08
2023-05-21T01:10:38.444Z,16.03
2023-05-21T01:13:06.116Z,16.48
2023-05-21T01:15:33.750Z,15.61
2023-05-21T01:18:01.938Z,15.47
2023-05-21T01:20:29.770Z,15.64
2023-05-21T01:22:57.615Z,15.39
2023-05-21T01:25:25.688Z,15.45
2023-05-21T01:27:53.385Z,15.38
2023-05-21T01:30:21.872Z,15.42
2023-05-21T01:33:02.568Z,15.56
2023-05-21T01:35:34.591Z,16.19
2023-05-21T01:38:41.533Z,16.44
2023-05-21T01:41:13.164Z,16.29
2023-05-21T01:43:44.457Z,16.34
2023-05-21T01:46:16.538Z,15.94
2023-05-21T01:48:44.623Z,16.17
2023-05-21T01:51:12.357Z,15.76
2023-05-21T01:53:40.839Z,15.36
2023-05-21T01:56:08.889Z,15.46
2023-05-21T01:58:36.970Z,15.40
2023-05-21T02:01:04.717Z,15.31
2023-05-21T02:03:32.888Z,15.32
2023-05-21T02:06:00.740Z,15.35
2023-05-21T02:08:28.428Z,15.47
2023-05-21T02:10:56.338Z,15.71
2023-05-21T02:13:26.233Z,15.70
2023-05-21T02:15:55.559Z,15.61
2023-05-21T02:18:24.255Z,15.36
2023-05-21T02:20:59.818Z,15.30
2023-05-21T02:23:28.381Z,15.44
2023-05-21T02:25:56.301Z,15.21
2023-05-21T02:28:24.419Z,15.26
2023-05-21T02:30:52.236Z,15.96
2023-05-21T02:33:21.171Z,16.08
2023-05-21T02:35:48.852Z,15.68
2023-05-21T02:38:16.425Z,15.27
2023-05-21T02:40:44.341Z,15.16
2023-05-21T02:43:12.938Z,15.16
2023-05-21T02:45:41.988Z,15.11
2023-05-21T02:48:10.171Z,15.13
2023-05-21T02:50:38.515Z,15.12
2023-05-21T02:53:06.460Z,15.20
2023-05-21T02:55:35.457Z,15.22
2023-05-21T02:58:03.467Z,15.12
2023-05-21T03:00:31.292Z,15.19
2023-05-21T03:03:00.828Z,15.12
2023-05-21T03:05:28.478Z,15.08
2023-05-21T03:07:56.278Z,15.47
2023-05-21T03:10:24.231Z,15.95
2023-05-21T03:12:51.882Z,16.00
2023-05-21T03:15:19.554Z,16.14
2023-05-21T03:17:47.561Z,16.05
2023-05-21T03:20:15.299Z,16.14
2023-05-21T03:22:44.214Z,16.10
2023-05-21T03:25:12.885Z,16.07
2023-05-21T03:27:40.522Z,16.38
2023-05-21T03:30:09.403Z,16.40
2023-05-21T03:32:39.113Z,16.35
2023-05-21T03:35:07.444Z,16.08
2023-05-21T03:37:35.455Z,15.59
2023-05-21T03:40:03.647Z,15.68
2023-05-21T03:42:31.366Z,15.75
2023-05-21T03:44:59.236Z,15.85
2023-05-21T03:47:29.219Z,16.01
2023-05-21T03:49:57.559Z,16.08
2023-05-21T03:52:25.232Z,16.02
2023-05-21T03:54:53.184Z,16.17
2023-05-21T03:57:21.098Z,16.20
2023-05-21T03:59:49.699Z,16.19
2023-05-21T04:02:17.963Z,16.24
2023-05-21T04:04:46.158Z,16.36
2023-05-21T04:07:13.942Z,16.25
2023-05-21T04:09:41.987Z,16.24
2023-05-21T04:12:09.978Z,16.16
2023-05-21T04:14:37.816Z,16.31
2023-05-21T04:17:05.556Z,16.18
2023-05-21T04:19:33.920Z,16.25
2023-05-21T04:22:01.992Z,16.30
2023-05-21T04:24:30.021Z,16.38
2023-05-21T04:26:58.779Z,16.32
2023-05-21T04:29:29.491Z,16.28
2023-05-21T04:31:57.810Z,16.43
2023-05-21T04:34:25.853Z,16.40
2023-05-21T04:36:53.589Z,16.53
2023-05-21T04:39:21.346Z,16.53
2023-05-21T04:41:49.452Z,16.53
2023-05-21T04:44:17.329Z,16.70
2023-05-21T04:46:45.559Z,16.74
2023-05-21T04:49:13.591Z,16.72
2023-05-21T04:51:43.159Z,16.90
2023-05-21T04:54:10.786Z,16.92
2023-05-21T04:56:38.825Z,16.98
2023-05-21T04:59:06.634Z,17.02
2023-05-21T05:01:34.692Z,17.11
2023-05-21T05:04:02.629Z,17.14
2023-05-21T05:06:32.876Z,17.32
2023-05-21T05:09:01.390Z,17.21
2023-05-21T05:11:29.540Z,17.27
2023-05-21T05:13:59.867Z,17.33
2023-05-21T05:16:27.687Z,17.43
2023-05-21T05:18:57.013Z,17.50
2023-05-21T05:21:24.869Z,17.57
2023-05-21T05:23:52.483Z,17.73
2023-05-21T05:26:21.684Z,17.71
2023-05-21T05:28:50.326Z,17.74
2023-05-21T05:31:18.999Z,17.74
2023-05-21T05:33:47.850Z,18.05
2023-05-21T05:36:15.895Z,17.90
2023-05-21T05:38:43.605Z,18.15
2023-05-21T05:41:11.998Z,18.32
2023-05-21T05:43:39.830Z,18.30
2023-05-21T05:46:07.517Z,18.01
2023-05-21T05:48:35.681Z,18.12
2023-05-21T05:51:03.643Z,18.14
2023-05-21T05:53:31.587Z,18.26
2023-05-21T05:55:59.910Z,18.22
2023-05-21T05:58:27.955Z,18.23
2023-05-21T06:00:56.247Z,18.37
2023-05-21T06:03:25.149Z,18.51
2023-05-21T06:05:53.456Z,18.57
2023-05-21T06:08:21.390Z,18.49
2023-05-21T06:10:49.468Z,18.66
2023-05-21T06:13:17.101Z,18.91
2023-05-21T06:15:44.896Z,18.92
2023-05-21T06:18:13.034Z,18.83
2023-05-21T06:20:40.847Z,18.96
2023-05-21T06:23:09.002Z,18.95
2023-05-21T06:25:37.730Z,18.82
2023-05-21T06:28:06.190Z,18.97
2023-05-21T06:30:34.199Z,19.04
2023-05-21T06:33:02.328Z,19.15
2023-05-21T06:35:30.180Z,19.91
2023-05-21T06:37:57.825Z,19.44
2023-05-21T06:40:25.850Z,19.47
2023-05-21T06:42:54.108Z,19.52
2023-05-21T06:45:23.049Z,19.71
2023-05-21T06:47:51.575Z,19.87
2023-05-21T06:50:19.523Z,19.98
2023-05-21T06:52:47.247Z,20.05
2023-05-21T06:55:15.293Z,20.16
2023-05-21T06:57:47.797Z,20.13
2023-05-21T07:00:15.941Z,20.21
2023-05-21T07:02:43.785Z,20.42
2023-05-21T07:05:11.629Z,20.24
2023-05-21T07:07:39.615Z,20.21
2023-05-21T07:10:07.979Z,20.40
2023-05-21T07:12:35.840Z,20.32
2023-05-21T07:15:04.125Z,20.44
2023-05-21T07:17:31.920Z,20.70
2023-05-21T07:19:59.604Z,20.71
2023-05-21T07:22:28.504Z,20.87
2023-05-21T07:24:56.428Z,20.95
2023-05-21T07:27:26.118Z,20.99
2023-05-21T07:29:54.962Z,21.12
2023-05-21T07:32:22.604Z,21.19
2023-05-21T07:34:51.564Z,21.31
2023-05-21T07:37:21.271Z,21.43
2023-05-21T07:39:49.119Z,21.18
2023-05-21T07:42:17.805Z,21.54
2023-05-21T07:44:46.016Z,21.66
2023-05-21T07:47:13.714Z,21.72
2023-05-21T07:49:41.457Z,21.90
2023-05-21T07:52:09.635Z,21.99
2023-05-21T07:54:37.355Z,22.07
2023-05-21T07:57:05.856Z,22.10
2023-05-21T07:59:40.009Z,22.18
2023-05-21T08:02:07.971Z,22.34
2023-05-21T08:04:37.423Z,22.37
2023-05-21T08:07:06.324Z,22.48
2023-05-21T08:09:33.965Z,22.57
2023-05-21T08:12:02.226Z,22.67
2023-05-21T08:14:30.933Z,22.70
2023-05-21T08:16:58.866Z,22.82
2023-05-21T08:19:26.928Z,22.80
2023-05-21T08:21:54.920Z,23.48
2023-05-21T08:24:24.003Z,23.07
2023-05-21T08:26:52.690Z,23.30
2023-05-21T08:29:20.625Z,23.35
2023-05-21T08:31:48.506Z,23.50
2023-05-21T08:34:16.535Z,23.60
2023-05-21T08:36:44.610Z,23.83
2023-05-21T08:39:13.271Z,23.90
2023-05-21T08:41:41.538Z,23.79
2023-05-21T08:44:12.323Z,23.74
2023-05-21T08:46:40.921Z,23.95
2023-05-21T08:49:12.357Z,23.97
2023-05-21T08:51:40.031Z,24.16
2023-05-21T08:54:07.888Z,24.49
2023-05-21T08:56:35.857Z,24.54
2023-05-21T08:59:03.731Z,24.50
2023-05-21T09:01:32.894Z,24.69
2023-05-21T09:04:12.216Z,24.71
2023-05-21T09:06:47.966Z,24.74
2023-05-21T09:09:29.777Z,24.73
2023-05-21T09:11:57.438Z,25.04
2023-05-21T09:14:26.673Z,25.52
2023-05-21T09:16:55.454Z,25.06
2023-05-21T09:19:23.293Z,25.27
2023-05-21T09:21:52.088Z,25.21
2023-05-21T09:24:21.814Z,25.22
2023-05-21T09:26:49.890Z,25.45
2023-05-21T09:29:18.328Z,25.63
2023-05-21T09:31:46.401Z,25.70
2023-05-21T09:34:14.288Z,25.81
2023-05-21T09:36:42.690Z,25.84
2023-05-21T09:39:10.447Z,25.59
2023-05-21T09:41:38.092Z,26.01
2023-05-21T09:44:06.110Z,26.15
2023-05-21T09:46:39.210Z,26.29
2023-05-21T09:49:07.580Z,26.50
2023-05-21T09:51:41.594Z,26.45
2023-05-21T09:54:10.717Z,26.44
2023-05-21T09:56:39.753Z,26.72
2023-05-21T09:59:07.403Z,26.76
2023-05-21T10:01:35.478Z,26.84
2023-05-21T10:04:06.962Z,26.86
2023-05-21T10:06:38.694Z,27.02
2023-05-21T10:09:09.525Z,27.18
2023-05-21T10:11:37.469Z,26.72
2023-05-21T10:14:16.642Z,26.69
2023-05-21T10:16:45.066Z,26.63
2023-05-21T10:19:13.928Z,26.48
2023-05-21T10:21:42.013Z,26.67
2023-05-21T10:24:10.756Z,26.70
2023-05-21T10:26:38.571Z,27.20
2023-05-21T10:29:07.904Z,26.72
2023-05-21T10:31:36.094Z,26.64
2023-05-21T10:34:04.013Z,26.91
2023-05-21T10:36:32.409Z,27.34
2023-05-21T10:39:01.945Z,27.37
2023-05-21T10:41:35.936Z,27.56
2023-05-21T10:44:21.788Z,27.70
2023-05-21T10:47:27.251Z,27.79
2023-05-21T10:50:18.214Z,27.99
2023-05-21T10:53:10.664Z,27.81
2023-05-21T10:55:50.893Z,27.59
2023-05-21T10:58:29.869Z,27.68
2023-05-21T11:00:59.490Z,28.23
2023-05-21T11:03:27.690Z,27.43
2023-05-21T11:05:56.113Z,28.16
2023-05-21T11:08:29.185Z,28.46
2023-05-21T11:10:57.826Z,28.66
2023-05-21T11:13:26.850Z,28.31
2023-05-21T11:15:57.424Z,28.65
2023-05-21T11:18:37.680Z,28.69
2023-05-21T11:21:06.353Z,28.16
2023-05-21T11:23:54.086Z,28.88
2023-05-21T11:26:23.256Z,28.81
2023-05-21T11:29:05.772Z,28.51
2023-05-21T11:31:34.495Z,28.70
2023-05-21T11:34:13.953Z,28.82
2023-05-21T11:36:45.785Z,28.87
2023-05-21T11:39:18.111Z,28.87
2023-05-21T11:42:01.576Z,28.68
2023-05-21T11:44:44.822Z,28.37
2023-05-21T11:47:13.473Z,28.23
2023-05-21T11:49:41.433Z,28.41
2023-05-21T11:52:09.986Z,28.48
2023-05-21T11:54:47.589Z,28.16
2023-05-21T11:57:15.557Z,28.71
2023-05-21T11:59:43.308Z,29.02
2023-05-21T12:02:14.934Z,29.10
2023-05-21T12:04:43.412Z,29.20
2023-05-21T12:07:11.561Z,29.55
2023-05-21T12:09:40.245Z,29.66
2023-05-21T12:12:09.036Z,28.95
2023-05-21T12:14:37.297Z,29.11
2023-05-21T12:17:05.971Z,29.81
2023-05-21T12:19:37.286Z,29.73
2023-05-21T12:22:07.123Z,29.56
2023-05-21T12:24:35.954Z,29.97
2023-05-21T12:27:05.576Z,30.39
2023-05-21T12:29:33.783Z,30.90
2023-05-21T12:32:03.043Z,30.30
2023-05-21T12:34:40.492Z,29.99
2023-05-21T12:37:08.416Z,30.34
2023-05-21T12:39:40.325Z,30.72
2023-05-21T12:42:08.954Z,30.89
2023-05-21T12:44:38.979Z,30.91
2023-05-21T12:47:06.578Z,30.76
2023-05-21T12:49:35.968Z,31.18
2023-05-21T12:52:13.404Z,31.73
2023-05-21T12:54:43.760Z,31.65
2023-05-21T12:57:17.673Z,31.20
2023-05-21T12:59:45.461Z,31.33
2023-05-21T13:02:30.019Z,31.30
2023-05-21T13:04:59.828Z,31.66
2023-05-21T13:07:29.215Z,32.06
2023-05-21T13:09:57.770Z,31.81
2023-05-21T13:12:28.206Z,31.97
2023-05-21T13:14:57.969Z,31.50
2023-05-21T13:17:26.810Z,30.86
2023-05-21T13:20:16.662Z,31.23
2023-05-21T13:22:45.908Z,31.50
2023-05-21T13:25:21.420Z,31.42
2023-05-21T13:27:50.455Z,31.22
2023-05-21T13:30:18.641Z,30.86
2023-05-21T13:32:47.062Z,30.65
2023-05-21T13:35:15.240Z,30.28
2023-05-21T13:37:42.902Z,31.43
2023-05-21T13:40:11.906Z,31.53
2023-05-21T13:42:40.324Z,31.48
2023-05-21T13:45:09.251Z,30.36
2023-05-21T13:47:39.270Z,31.17
2023-05-21T13:50:09.242Z,31.36
2023-05-21T13:52:37.415Z,31.85
2023-05-21T13:55:05.546Z,31.84
2023-05-21T13:57:33.625Z,32.34
2023-05-21T14:00:01.713Z,31.16
2023-05-21T14:02:29.935Z,31.38
2023-05-21T14:04:58.165Z,30.53
2023-05-21T14:07:25.847Z,29.82
2023-05-21T14:09:53.525Z,29.93
2023-05-21T14:12:21.507Z,30.14
2023-05-21T14:14:49.149Z,30.31
2023-05-21T14:17:16.808Z,30.67
2023-05-21T14:19:44.729Z,31.03
2023-05-21T14:22:12.321Z,30.72
2023-05-21T14:24:39.974Z,31.17
2023-05-21T14:27:07.839Z,31.06
2023-05-21T14:29:35.491Z,30.85
2023-05-21T14:32:03.046Z,31.03
2023-05-21T14:34:30.990Z,31.04
2023-05-21T14:36:59.309Z,31.42
2023-05-21T14:39:27.233Z,31.28
2023-05-21T14:41:55.144Z,31.02
2023-05-21T14:44:22.793Z,30.71
2023-05-21T14:46:50.539Z,31.07
2023-05-21T14:49:18.777Z,31.08
2023-05-21T14:51:47.021Z,30.33
2023-05-21T14:54:14.772Z,30.20
2023-05-21T14:56:42.604Z,30.60
2023-05-21T14:59:10.276Z,30.66
2023-05-21T15:01:38.142Z,30.20
2023-05-21T15:04:06.243Z,29.74
2023-05-21T15:06:33.996Z,30.37
2023-05-21T15:09:02.489Z,29.53
2023-05-21T15:11:30.515Z,29.88
2023-05-21T15:13:58.231Z,29.87
2023-05-21T15:16:26.014Z,30.35
2023-05-21T15:18:54.055Z,30.61
2023-05-21T15:21:21.788Z,30.34
2023-05-21T15:23:49.393Z,30.59
2023-05-21T15:26:17.383Z,30.63
2023-05-21T15:28:45.102Z,30.22
2023-05-21T15:31:14.792Z,30.51
2023-05-21T15:33:45.366Z,29.73
2023-05-21T15:36:12.987Z,29.66
2023-05-21T15:38:40.697Z,29.12
2023-05-21T15:41:08.664Z,28.90
2023-05-21T15:43:36.297Z,29.00
2023-05-21T15:46:04.530Z,28.15
2023-05-21T15:48:32.457Z,28.57
2023-05-21T15:51:00.379Z,28.36
2023-05-21T15:53:28.089Z,28.25
2023-05-21T15:55:56.318Z,28.02
2023-05-21T15:58:24.037Z,27.80
2023-05-21T16:00:51.777Z,28.19
2023-05-21T16:03:19.768Z,28.05
2023-05-21T16:05:47.585Z,27.73
2023-05-21T16:08:15.194Z,28.01
2023-05-21T16:10:43.413Z,27.85
2023-05-21T16:13:11.260Z,27.52
2023-05-21T16:15:39.539Z,27.46
2023-05-21T16:18:07.717Z,27.45
2023-05-21T16:20:35.408Z,27.61
2023-05-21T16:23:03.072Z,27.34
2023-05-21T16:25:31.098Z,27.60
2023-05-21T16:27:59.157Z,27.78
2023-05-21T16:30:26.787Z,27.13
2023-05-21T16:32:54.932Z,26.68
2023-05-21T16:35:22.724Z,26.64
2023-05-21T16:37:50.620Z,26.81
2023-05-21T16:40:18.637Z,26.51
2023-05-21T16:42:46.378Z,26.75
2023-05-21T16:45:14.211Z,26.89
2023-05-21T16:47:42.218Z,26.89
2023-05-21T16:50:10.105Z,26.74
2023-05-21T16:52:37.805Z,26.34
2023-05-21T16:55:06.136Z,26.00
2023-05-21T16:57:36.548Z,25.76
2023-05-21T17:00:05.467Z,25.61
2023-05-21T17:02:33.832Z,25.80
2023-05-21T17:05:01.760Z,25.87
2023-05-21T17:07:29.347Z,25.40
2023-05-21T17:09:57.353Z,25.34
2023-05-21T17:12:24.931Z,25.33
2023-05-21T17:14:52.718Z,25.55
2023-05-21T17:17:20.794Z,25.30
2023-05-21T17:19:48.459Z,25.18
2023-05-21T17:22:16.181Z,25.29
2023-05-21T17:24:44.118Z,25.31
2023-05-21T17:27:12.053Z,25.79
2023-05-21T17:29:39.970Z,25.27
2023-05-21T17:32:08.121Z,24.82
2023-05-21T17:34:35.868Z,24.79
2023-05-21T17:37:03.577Z,24.88
2023-05-21T17:39:31.585Z,24.93
2023-05-21T17:41:59.365Z,24.79
2023-05-21T17:44:27.016Z,24.50
2023-05-21T17:46:55.139Z,24.28
2023-05-21T17:49:22.919Z,24.40
2023-05-21T17:51:51.039Z,24.54
2023-05-21T17:54:19.829Z,24.04
2023-05-21T17:56:47.424Z,23.86
2023-05-21T17:59:15.315Z,23.91
2023-05-21T18:01:43.354Z,23.50
2023-05-21T18:04:11.281Z,23.24
2023-05-21T18:06:39.830Z,22.98
2023-05-21T18:09:07.614Z,23.04
2023-05-21T18:11:35.645Z,22.74
2023-05-21T18:14:03.497Z,22.58
2023-05-21T18:16:31.210Z,22.52
2023-05-21T18:18:59.545Z,22.44
2023-05-21T18:21:27.310Z,22.32
2023-05-21T18:23:54.966Z,22.12
2023-05-21T18:26:22.910Z,22.03
2023-05-21T18:28:50.566Z,22.11
2023-05-21T18:31:18.220Z,21.79
2023-05-21T18:33:46.246Z,21.68
2023-05-21T18:36:14.029Z,21.62
2023-05-21T18:38:41.744Z,21.58
2023-05-21T18:41:09.724Z,21.42
2023-05-21T18:43:37.482Z,21.38
2023-05-21T18:46:05.182Z,21.46
2023-05-21T18:48:33.252Z,21.30
2023-05-21T18:51:01.069Z,21.26
2023-05-21T18:53:28.716Z,21.04
2023-05-21T18:55:57.031Z,21.02
2023-05-21T18:58:24.726Z,21.01
2023-05-21T19:00:52.426Z,20.91
2023-05-21T19:03:20.685Z,20.87
2023-05-21T19:05:49.077Z,20.77
2023-05-21T19:08:16.821Z,20.69
2023-05-21T19:10:45.769Z,20.54
2023-05-21T19:13:13.509Z,20.59
2023-05-21T19:15:41.241Z,20.41
2023-05-21T19:18:09.515Z,20.43
2023-05-21T19:20:37.502Z,20.34
2023-05-21T19:23:05.434Z,20.36
2023-05-21T19:25:33.473Z,20.29
2023-05-21T19:28:01.386Z,20.18
2023-05-21T19:30:29.085Z,20.23
2023-05-21T19:32:57.052Z,20.15
2023-05-21T19:35:24.724Z,20.07
2023-05-21T19:37:52.326Z,19.75
2023-05-21T19:40:20.413Z,19.71
2023-05-21T19:42:48.156Z,19.60
2023-05-21T19:45:15.939Z,19.85
2023-05-21T19:47:44.015Z,19.81
2023-05-21T19:50:11.786Z,19.76
2023-05-21T19:52:39.518Z,19.42
2023-05-21T19:55:07.716Z,19.32
2023-05-21T19:57:35.429Z,19.48
2023-05-21T20:00:03.571Z,19.36
2023-05-21T20:02:40.706Z,19.53
2023-05-21T20:05:09.267Z,19.24
2023-05-21T20:07:37.153Z,19.66
2023-05-21T20:10:05.228Z,19.28
2023-05-21T20:12:33.125Z,19.16
2023-05-21T20:15:01.198Z,19.14
2023-05-21T20:17:29.082Z,19.33
2023-05-21T20:19:57.397Z,19.23
2023-05-21T20:22:24.976Z,19.12
2023-05-21T20:24:52.653Z,19.04
2023-05-21T20:27:20.551Z,19.11
2023-05-21T20:29:48.216Z,19.00
2023-05-21T20:32:15.938Z,19.01
2023-05-21T20:34:58.321Z,18.95
2023-05-21T20:37:30.137Z,18.92
2023-05-21T20:39:58.290Z,18.94
2023-05-21T20:42:26.831Z,18.92
2023-05-21T20:44:55.057Z,18.95
2023-05-21T20:47:23.115Z,19.01
2023-05-21T20:49:50.885Z,19.05
2023-05-21T20:52:18.563Z,18.89
2023-05-21T20:54:46.524Z,19.00
2023-05-21T20:57:14.261Z,18.95
2023-05-21T20:59:41.964Z,18.94
2023-05-21T21:02:11.123Z,18.95
2023-05-21T21:04:38.806Z,19.73
2023-05-21T21:07:06.500Z,19.40
2023-05-21T21:09:34.495Z,19.02
2023-05-21T21:12:11.347Z,18.98
2023-05-21T21:14:49.353Z,18.98
2023-05-21T21:17:16.974Z,18.91
2023-05-21T21:19:44.600Z,18.89
2023-05-21T21:22:12.525Z,19.60
2023-05-21T21:24:40.231Z,20.05
2023-05-21T21:27:07.858Z,19.99
2023-05-21T21:29:35.925Z,19.41
2023-05-21T21:32:03.549Z,19.13
2023-05-21T21:34:31.233Z,19.10
2023-05-21T21:36:59.236Z,18.98
2023-05-21T21:39:26.910Z,19.06
2023-05-21T21:41:54.529Z,19.12
2023-05-21T21:44:22.545Z,19.04
2023-05-21T21:46:50.181Z,18.93
2023-05-21T21:49:17.826Z,18.91
2023-05-21T21:51:45.956Z,18.73
2023-05-21T21:54:13.476Z,18.87
2023-05-21T21:56:41.278Z,18.89
2023-05-21T21:59:09.265Z,18.79
2023-05-21T22:01:37.411Z,18.86
2023-05-21T22:04:05.536Z,18.66
2023-05-21T22:06:33.193Z,18.65
2023-05-21T22:09:03.575Z,18.61
2023-05-21T22:11:31.614Z,18.98
2023-05-21T22:13:59.443Z,18.67
2023-05-21T22:16:27.355Z,18.75
2023-05-21T22:18:55.294Z,18.76
2023-05-21T22:21:23.002Z,18.60
2023-05-21T22:23:50.562Z,18.39
2023-05-21T22:26:18.457Z,18.29
2023-05-21T22:28:46.158Z,18.34
2023-05-21T22:31:13.808Z,18.28
2023-05-21T22:33:41.802Z,17.88
2023-05-21T22:36:09.687Z,18.46
2023-05-21T22:38:37.326Z,18.97
2023-05-21T22:41:05.291Z,18.89
2023-05-21T22:43:33.929Z,18.88
2023-05-21T22:46:02.056Z,18.05
2023-05-21T22:48:29.987Z,17.94
2023-05-21T22:50:57.874Z,17.76
2023-05-21T22:53:25.708Z,17.63
2023-05-21T22:55:53.589Z,17.59
2023-05-21T22:58:21.259Z,17.60
2023-05-21T23:00:49.104Z,17.52
2023-05-21T23:03:17.066Z,17.61
2023-05-21T23:05:45.524Z,17.65
2023-05-21T23:08:13.601Z,17.55
2023-05-21T23:10:41.823Z,17.54
2023-05-21T23:13:09.658Z,17.49
2023-05-21T23:15:37.408Z,17.64
2023-05-21T23:18:05.486Z,17.59
2023-05-21T23:20:33.260Z,17.84
2023-05-21T23:23:01.127Z,17.63
2023-05-21T23:25:29.071Z,17.68
2023-05-21T23:27:56.749Z,17.60
2023-05-21T23:30:24.287Z,17.52
2023-05-21T23:32:52.404Z,17.56
2023-05-21T23:35:20.116Z,17.46
2023-05-21T23:37:47.911Z,17.52
2023-05-21T23:40:15.800Z,17.57
2023-05-21T23:42:43.515Z,17.35
2023-05-21T23:45:11.470Z,17.85
2023-05-21T23:47:39.486Z,17.93
2023-05-21T23:50:07.691Z,17.96
2023-05-21T23:52:35.389Z,17.91
2023-05-21T23:55:03.300Z,17.85
2023-05-21T23:57:31.031Z,17.70
2023-05-21T23:59:58.764Z,17.60
